sensor_id;sensor_type;location;lat;lon;timestamp;P1;durP1;ratioP1;P2;durP2;ratioP2
73107;SDS011;61559;50.476;15.588;2024-02-26T00:00:56;23.40;;;13.20;;
73107;SDS011;61559;50.476;15.588;2024-02-26T00:03:47;19.00;;;10.70;;
73107;SDS011;61559;50.476;15.588;2024-02-26T00:06:18;21.90;;;11.80;;
73107;SDS011;61559;50.476;15.588;2024-02-26T00:08:50;20.60;;;11.60;;
73107;SDS011;61559;50.476;15.588;2024-02-26T00:13:51;16.90;;;9.70;;
73107;SDS011;61559;50.476;15.588;2024-02-26T00:16:22;23.90;;;13.10;;
73107;SDS011;61559;50.476;15.588;2024-02-26T00:18:53;23.80;;;13.10;;
73107;SDS011;61559;50.476;15.588;2024-02-26T00:21:24;19.80;;;11.90;;
73107;SDS011;61559;50.476;15.588;2024-02-26T00:23:55;24.90;;;13.60;;
73107;SDS011;61559;50.476;15.588;2024-02-26T00:26:26;21.10;;;12.40;;
73107;SDS011;61559;50.476;15.588;2024-02-26T00:28:57;23.70;;;12.90;;
73107;SDS011;61559;50.476;15.588;2024-02-26T00:31:28;19.70;;;12.30;;
73107;SDS011;61559;50.476;15.588;2024-02-26T00:34:00;21.70;;;12.90;;
73107;SDS011;61559;50.476;15.588;2024-02-26T00:39:01;21.40;;;11.20;;
73107;SDS011;61559;50.476;15.588;2024-02-26T00:41:32;21.90;;;11.80;;
73107;SDS011;61559;50.476;15.588;2024-02-26T00:44:07;17.60;;;10.50;;
73107;SDS011;61559;50.476;15.588;2024-02-26T00:46:38;18.70;;;11.20;;
73107;SDS011;61559;50.476;15.588;2024-02-26T00:49:09;20.70;;;12.50;;
73107;SDS011;61559;50.476;15.588;2024-02-26T00:51:40;28.50;;;14.80;;
73107;SDS011;61559;50.476;15.588;2024-02-26T00:54:11;31.50;;;16.50;;
73107;SDS011;61559;50.476;15.588;2024-02-26T00:56:43;31.40;;;15.40;;
73107;SDS011;61559;50.476;15.588;2024-02-26T01:01:44;24.90;;;13.60;;
73107;SDS011;61559;50.476;15.588;2024-02-26T01:04:15;22.90;;;13.40;;
73107;SDS011;61559;50.476;15.588;2024-02-26T01:06:46;24.10;;;14.30;;
73107;SDS011;61559;50.476;15.588;2024-02-26T01:09:18;26.00;;;15.10;;
73107;SDS011;61559;50.476;15.588;2024-02-26T01:11:49;20.20;;;12.50;;
73107;SDS011;61559;50.476;15.588;2024-02-26T01:14:20;19.30;;;11.30;;
73107;SDS011;61559;50.476;15.588;2024-02-26T01:16:51;34.00;;;17.80;;
73107;SDS011;61559;50.476;15.588;2024-02-26T01:19:23;33.00;;;18.90;;
73107;SDS011;61559;50.476;15.588;2024-02-26T01:21:54;25.90;;;15.20;;
73107;SDS011;61559;50.476;15.588;2024-02-26T01:24:25;30.50;;;17.30;;
73107;SDS011;61559;50.476;15.588;2024-02-26T01:26:56;37.90;;;19.00;;
73107;SDS011;61559;50.476;15.588;2024-02-26T01:29:27;25.00;;;14.40;;
73107;SDS011;61559;50.476;15.588;2024-02-26T01:32:01;26.50;;;15.00;;
73107;SDS011;61559;50.476;15.588;2024-02-26T01:34:34;28.80;;;14.10;;
73107;SDS011;61559;50.476;15.588;2024-02-26T01:37:06;27.20;;;13.50;;
73107;SDS011;61559;50.476;15.588;2024-02-26T01:39:37;24.10;;;13.40;;
73107;SDS011;61559;50.476;15.588;2024-02-26T01:42:10;23.30;;;13.20;;
73107;SDS011;61559;50.476;15.588;2024-02-26T01:44:41;23.00;;;13.90;;
73107;SDS011;61559;50.476;15.588;2024-02-26T01:47:12;27.00;;;15.80;;
73107;SDS011;61559;50.476;15.588;2024-02-26T01:49:44;33.20;;;16.70;;
73107;SDS011;61559;50.476;15.588;2024-02-26T01:52:16;28.00;;;16.10;;
73107;SDS011;61559;50.476;15.588;2024-02-26T01:54:48;38.40;;;19.50;;
73107;SDS011;61559;50.476;15.588;2024-02-26T01:57:19;30.60;;;17.60;;
73107;SDS011;61559;50.476;15.588;2024-02-26T02:04:51;20.10;;;11.40;;
73107;SDS011;61559;50.476;15.588;2024-02-26T02:07:23;22.90;;;13.10;;
73107;SDS011;61559;50.476;15.588;2024-02-26T02:09:55;26.60;;;14.50;;
73107;SDS011;61559;50.476;15.588;2024-02-26T02:12:28;25.60;;;14.50;;
73107;SDS011;61559;50.476;15.588;2024-02-26T02:15:01;27.20;;;14.70;;
73107;SDS011;61559;50.476;15.588;2024-02-26T02:17:33;30.80;;;15.10;;
73107;SDS011;61559;50.476;15.588;2024-02-26T02:20:05;29.10;;;14.70;;
73107;SDS011;61559;50.476;15.588;2024-02-26T02:22:44;22.00;;;12.10;;
73107;SDS011;61559;50.476;15.588;2024-02-26T02:27:45;26.90;;;16.10;;
73107;SDS011;61559;50.476;15.588;2024-02-26T02:32:47;36.90;;;18.20;;
73107;SDS011;61559;50.476;15.588;2024-02-26T02:35:18;28.60;;;15.30;;
73107;SDS011;61559;50.476;15.588;2024-02-26T02:37:49;28.90;;;15.10;;
73107;SDS011;61559;50.476;15.588;2024-02-26T02:40:21;29.90;;;15.50;;
73107;SDS011;61559;50.476;15.588;2024-02-26T02:42:52;30.00;;;14.40;;
73107;SDS011;61559;50.476;15.588;2024-02-26T02:45:23;24.60;;;13.60;;
73107;SDS011;61559;50.476;15.588;2024-02-26T02:47:55;24.10;;;12.40;;
73107;SDS011;61559;50.476;15.588;2024-02-26T02:50:26;20.80;;;11.90;;
73107;SDS011;61559;50.476;15.588;2024-02-26T02:52:58;20.20;;;10.80;;
73107;SDS011;61559;50.476;15.588;2024-02-26T02:55:29;19.80;;;10.50;;
73107;SDS011;61559;50.476;15.588;2024-02-26T02:58:00;17.60;;;9.60;;
73107;SDS011;61559;50.476;15.588;2024-02-26T03:00:31;20.10;;;10.10;;
73107;SDS011;61559;50.476;15.588;2024-02-26T03:03:03;16.10;;;8.00;;
73107;SDS011;61559;50.476;15.588;2024-02-26T03:05:34;13.10;;;7.00;;
73107;SDS011;61559;50.476;15.588;2024-02-26T03:08:06;18.00;;;9.50;;
73107;SDS011;61559;50.476;15.588;2024-02-26T03:10:37;30.30;;;14.30;;
73107;SDS011;61559;50.476;15.588;2024-02-26T03:13:11;34.90;;;17.10;;
73107;SDS011;61559;50.476;15.588;2024-02-26T03:18:12;22.70;;;11.10;;
73107;SDS011;61559;50.476;15.588;2024-02-26T03:23:13;16.00;;;9.00;;
73107;SDS011;61559;50.476;15.588;2024-02-26T03:25:45;17.20;;;9.40;;
73107;SDS011;61559;50.476;15.588;2024-02-26T03:34:17;14.80;;;8.30;;
73107;SDS011;61559;50.476;15.588;2024-02-26T03:38:02;11.90;;;7.00;;
73107;SDS011;61559;50.476;15.588;2024-02-26T03:43:03;10.60;;;5.90;;
73107;SDS011;61559;50.476;15.588;2024-02-26T03:45:35;13.30;;;7.60;;
73107;SDS011;61559;50.476;15.588;2024-02-26T03:48:07;12.90;;;7.00;;
73107;SDS011;61559;50.476;15.588;2024-02-26T03:50:39;14.90;;;8.90;;
73107;SDS011;61559;50.476;15.588;2024-02-26T03:53:10;17.60;;;8.60;;
73107;SDS011;61559;50.476;15.588;2024-02-26T03:55:42;31.90;;;17.10;;
73107;SDS011;61559;50.476;15.588;2024-02-26T03:58:32;23.50;;;13.90;;
73107;SDS011;61559;50.476;15.588;2024-02-26T04:01:03;17.40;;;9.30;;
73107;SDS011;61559;50.476;15.588;2024-02-26T04:03:36;13.80;;;7.60;;
73107;SDS011;61559;50.476;15.588;2024-02-26T04:06:09;19.70;;;9.90;;
73107;SDS011;61559;50.476;15.588;2024-02-26T04:08:42;16.90;;;9.10;;
73107;SDS011;61559;50.476;15.588;2024-02-26T04:11:14;13.40;;;6.60;;
73107;SDS011;61559;50.476;15.588;2024-02-26T04:13:47;11.10;;;5.50;;
73107;SDS011;61559;50.476;15.588;2024-02-26T04:16:20;9.90;;;6.00;;
73107;SDS011;61559;50.476;15.588;2024-02-26T04:18:51;12.90;;;6.40;;
73107;SDS011;61559;50.476;15.588;2024-02-26T04:23:52;8.90;;;5.00;;
73107;SDS011;61559;50.476;15.588;2024-02-26T04:26:24;10.50;;;5.60;;
73107;SDS011;61559;50.476;15.588;2024-02-26T04:28:55;9.70;;;5.40;;
73107;SDS011;61559;50.476;15.588;2024-02-26T04:31:26;10.80;;;5.70;;
73107;SDS011;61559;50.476;15.588;2024-02-26T04:33:58;8.40;;;4.20;;
73107;SDS011;61559;50.476;15.588;2024-02-26T04:36:30;9.10;;;4.60;;
73107;SDS011;61559;50.476;15.588;2024-02-26T04:39:01;8.80;;;4.30;;
73107;SDS011;61559;50.476;15.588;2024-02-26T04:41:33;13.30;;;6.40;;
73107;SDS011;61559;50.476;15.588;2024-02-26T04:44:04;13.00;;;6.40;;
73107;SDS011;61559;50.476;15.588;2024-02-26T04:46:35;22.30;;;10.10;;
73107;SDS011;61559;50.476;15.588;2024-02-26T04:49:06;20.60;;;9.20;;
73107;SDS011;61559;50.476;15.588;2024-02-26T04:54:08;27.40;;;12.80;;
73107;SDS011;61559;50.476;15.588;2024-02-26T04:56:39;13.40;;;6.60;;
73107;SDS011;61559;50.476;15.588;2024-02-26T04:59:11;12.00;;;6.30;;
73107;SDS011;61559;50.476;15.588;2024-02-26T05:04:12;11.90;;;5.80;;
73107;SDS011;61559;50.476;15.588;2024-02-26T05:06:43;12.40;;;6.50;;
73107;SDS011;61559;50.476;15.588;2024-02-26T05:09:14;16.40;;;8.90;;
73107;SDS011;61559;50.476;15.588;2024-02-26T05:11:46;23.70;;;10.20;;
73107;SDS011;61559;50.476;15.588;2024-02-26T05:14:17;24.80;;;11.10;;
73107;SDS011;61559;50.476;15.588;2024-02-26T05:17:05;32.00;;;13.50;;
73107;SDS011;61559;50.476;15.588;2024-02-26T05:19:36;22.60;;;10.50;;
73107;SDS011;61559;50.476;15.588;2024-02-26T05:24:38;19.90;;;9.80;;
73107;SDS011;61559;50.476;15.588;2024-02-26T05:27:09;25.40;;;13.20;;
73107;SDS011;61559;50.476;15.588;2024-02-26T05:29:41;37.90;;;15.60;;
73107;SDS011;61559;50.476;15.588;2024-02-26T05:32:12;22.40;;;12.00;;
73107;SDS011;61559;50.476;15.588;2024-02-26T05:34:44;18.70;;;8.30;;
73107;SDS011;61559;50.476;15.588;2024-02-26T05:37:15;13.30;;;5.70;;
73107;SDS011;61559;50.476;15.588;2024-02-26T05:44:07;8.20;;;3.40;;
73107;SDS011;61559;50.476;15.588;2024-02-26T05:46:44;8.10;;;4.60;;
73107;SDS011;61559;50.476;15.588;2024-02-26T05:49:15;21.10;;;9.70;;
73107;SDS011;61559;50.476;15.588;2024-02-26T05:51:46;17.80;;;8.70;;
73107;SDS011;61559;50.476;15.588;2024-02-26T05:54:17;26.10;;;11.50;;
73107;SDS011;61559;50.476;15.588;2024-02-26T05:56:48;30.40;;;11.00;;
73107;SDS011;61559;50.476;15.588;2024-02-26T05:59:20;37.10;;;15.00;;
73107;SDS011;61559;50.476;15.588;2024-02-26T06:01:51;32.60;;;15.00;;
73107;SDS011;61559;50.476;15.588;2024-02-26T06:04:22;25.80;;;11.40;;
73107;SDS011;61559;50.476;15.588;2024-02-26T06:06:54;24.60;;;11.10;;
73107;SDS011;61559;50.476;15.588;2024-02-26T06:09:25;32.40;;;14.70;;
73107;SDS011;61559;50.476;15.588;2024-02-26T06:11:56;32.30;;;13.20;;
73107;SDS011;61559;50.476;15.588;2024-02-26T06:14:29;25.60;;;11.20;;
73107;SDS011;61559;50.476;15.588;2024-02-26T06:17:00;19.30;;;10.80;;
73107;SDS011;61559;50.476;15.588;2024-02-26T06:19:31;17.70;;;9.20;;
73107;SDS011;61559;50.476;15.588;2024-02-26T06:24:32;21.90;;;9.90;;
73107;SDS011;61559;50.476;15.588;2024-02-26T06:27:03;40.80;;;16.80;;
73107;SDS011;61559;50.476;15.588;2024-02-26T06:29:34;33.70;;;15.70;;
73107;SDS011;61559;50.476;15.588;2024-02-26T06:32:06;36.90;;;16.10;;
73107;SDS011;61559;50.476;15.588;2024-02-26T06:34:37;39.00;;;16.40;;
73107;SDS011;61559;50.476;15.588;2024-02-26T06:37:09;39.80;;;17.00;;
73107;SDS011;61559;50.476;15.588;2024-02-26T06:39:40;42.30;;;18.40;;
73107;SDS011;61559;50.476;15.588;2024-02-26T06:42:11;33.00;;;14.20;;
73107;SDS011;61559;50.476;15.588;2024-02-26T06:44:43;21.30;;;10.00;;
73107;SDS011;61559;50.476;15.588;2024-02-26T06:47:15;20.60;;;9.20;;
73107;SDS011;61559;50.476;15.588;2024-02-26T06:49:48;16.00;;;7.70;;
73107;SDS011;61559;50.476;15.588;2024-02-26T06:52:19;22.70;;;10.50;;
73107;SDS011;61559;50.476;15.588;2024-02-26T06:54:50;30.40;;;14.60;;
73107;SDS011;61559;50.476;15.588;2024-02-26T06:59:52;7.90;;;3.90;;
73107;SDS011;61559;50.476;15.588;2024-02-26T07:02:23;8.30;;;4.30;;
73107;SDS011;61559;50.476;15.588;2024-02-26T07:04:54;7.80;;;4.30;;
73107;SDS011;61559;50.476;15.588;2024-02-26T07:07:26;7.80;;;4.10;;
73107;SDS011;61559;50.476;15.588;2024-02-26T07:12:30;8.40;;;4.20;;
73107;SDS011;61559;50.476;15.588;2024-02-26T07:15:02;5.60;;;3.90;;
73107;SDS011;61559;50.476;15.588;2024-02-26T07:17:36;8.20;;;4.60;;
73107;SDS011;61559;50.476;15.588;2024-02-26T07:20:11;10.30;;;4.60;;
73107;SDS011;61559;50.476;15.588;2024-02-26T07:22:43;8.70;;;5.00;;
73107;SDS011;61559;50.476;15.588;2024-02-26T07:25:32;9.70;;;5.10;;
73107;SDS011;61559;50.476;15.588;2024-02-26T07:28:04;8.80;;;4.60;;
73107;SDS011;61559;50.476;15.588;2024-02-26T07:30:35;9.00;;;5.00;;
73107;SDS011;61559;50.476;15.588;2024-02-26T07:33:06;9.70;;;5.20;;
73107;SDS011;61559;50.476;15.588;2024-02-26T07:38:07;8.10;;;4.30;;
73107;SDS011;61559;50.476;15.588;2024-02-26T07:40:55;7.20;;;4.30;;
73107;SDS011;61559;50.476;15.588;2024-02-26T07:43:30;9.40;;;4.50;;
73107;SDS011;61559;50.476;15.588;2024-02-26T07:46:01;11.00;;;4.90;;
73107;SDS011;61559;50.476;15.588;2024-02-26T07:48:33;9.20;;;4.80;;
73107;SDS011;61559;50.476;15.588;2024-02-26T07:51:05;10.00;;;4.90;;
73107;SDS011;61559;50.476;15.588;2024-02-26T07:56:06;10.60;;;5.00;;
73107;SDS011;61559;50.476;15.588;2024-02-26T07:58:37;9.10;;;4.70;;
73107;SDS011;61559;50.476;15.588;2024-02-26T08:01:08;10.30;;;5.70;;
73107;SDS011;61559;50.476;15.588;2024-02-26T08:03:42;8.90;;;4.90;;
73107;SDS011;61559;50.476;15.588;2024-02-26T08:08:43;9.00;;;4.80;;
73107;SDS011;61559;50.476;15.588;2024-02-26T08:11:15;11.90;;;5.20;;
73107;SDS011;61559;50.476;15.588;2024-02-26T08:13:46;11.60;;;6.00;;
73107;SDS011;61559;50.476;15.588;2024-02-26T08:16:17;11.30;;;5.80;;
73107;SDS011;61559;50.476;15.588;2024-02-26T08:18:48;12.70;;;6.10;;
73107;SDS011;61559;50.476;15.588;2024-02-26T08:21:37;10.60;;;5.90;;
73107;SDS011;61559;50.476;15.588;2024-02-26T08:24:08;11.80;;;6.00;;
73107;SDS011;61559;50.476;15.588;2024-02-26T08:26:39;10.40;;;5.80;;
73107;SDS011;61559;50.476;15.588;2024-02-26T08:29:10;11.20;;;5.30;;
73107;SDS011;61559;50.476;15.588;2024-02-26T08:31:41;11.90;;;5.90;;
73107;SDS011;61559;50.476;15.588;2024-02-26T08:34:13;11.50;;;6.60;;
73107;SDS011;61559;50.476;15.588;2024-02-26T08:36:45;12.50;;;5.90;;
73107;SDS011;61559;50.476;15.588;2024-02-26T08:39:17;11.60;;;6.60;;
73107;SDS011;61559;50.476;15.588;2024-02-26T08:41:49;11.10;;;6.50;;
73107;SDS011;61559;50.476;15.588;2024-02-26T08:44:20;12.10;;;6.30;;
73107;SDS011;61559;50.476;15.588;2024-02-26T08:46:51;10.30;;;6.30;;
73107;SDS011;61559;50.476;15.588;2024-02-26T08:49:22;12.10;;;7.10;;
73107;SDS011;61559;50.476;15.588;2024-02-26T08:51:53;10.50;;;6.00;;
73107;SDS011;61559;50.476;15.588;2024-02-26T08:54:24;13.50;;;7.20;;
73107;SDS011;61559;50.476;15.588;2024-02-26T08:56:55;11.60;;;7.00;;
73107;SDS011;61559;50.476;15.588;2024-02-26T08:59:27;10.90;;;6.00;;
73107;SDS011;61559;50.476;15.588;2024-02-26T09:01:58;11.70;;;7.50;;
73107;SDS011;61559;50.476;15.588;2024-02-26T09:04:29;12.80;;;7.20;;
73107;SDS011;61559;50.476;15.588;2024-02-26T09:07:00;11.30;;;6.40;;
73107;SDS011;61559;50.476;15.588;2024-02-26T09:09:32;9.90;;;5.80;;
73107;SDS011;61559;50.476;15.588;2024-02-26T09:12:04;10.00;;;6.00;;
73107;SDS011;61559;50.476;15.588;2024-02-26T09:14:36;21.00;;;10.00;;
73107;SDS011;61559;50.476;15.588;2024-02-26T09:17:07;10.90;;;6.60;;
73107;SDS011;61559;50.476;15.588;2024-02-26T09:19:38;10.20;;;5.60;;
73107;SDS011;61559;50.476;15.588;2024-02-26T09:22:10;12.30;;;6.40;;
73107;SDS011;61559;50.476;15.588;2024-02-26T09:24:45;12.40;;;8.00;;
73107;SDS011;61559;50.476;15.588;2024-02-26T09:27:17;12.50;;;6.30;;
73107;SDS011;61559;50.476;15.588;2024-02-26T09:32:18;11.90;;;6.20;;
73107;SDS011;61559;50.476;15.588;2024-02-26T09:34:49;13.40;;;6.10;;
73107;SDS011;61559;50.476;15.588;2024-02-26T09:42:20;10.10;;;5.10;;
73107;SDS011;61559;50.476;15.588;2024-02-26T09:44:54;16.80;;;10.20;;
73107;SDS011;61559;50.476;15.588;2024-02-26T09:47:31;11.30;;;6.40;;
73107;SDS011;61559;50.476;15.588;2024-02-26T09:50:02;10.10;;;5.30;;
73107;SDS011;61559;50.476;15.588;2024-02-26T09:52:37;8.40;;;5.90;;
73107;SDS011;61559;50.476;15.588;2024-02-26T09:55:10;11.30;;;5.60;;
73107;SDS011;61559;50.476;15.588;2024-02-26T09:57:42;9.00;;;5.40;;
73107;SDS011;61559;50.476;15.588;2024-02-26T10:00:34;11.10;;;5.40;;
73107;SDS011;61559;50.476;15.588;2024-02-26T10:03:11;8.10;;;5.50;;
73107;SDS011;61559;50.476;15.588;2024-02-26T10:05:45;11.30;;;5.20;;
73107;SDS011;61559;50.476;15.588;2024-02-26T10:08:18;8.00;;;5.00;;
73107;SDS011;61559;50.476;15.588;2024-02-26T10:10:50;10.80;;;6.00;;
73107;SDS011;61559;50.476;15.588;2024-02-26T10:13:22;9.40;;;5.30;;
73107;SDS011;61559;50.476;15.588;2024-02-26T10:18:23;8.80;;;5.50;;
73107;SDS011;61559;50.476;15.588;2024-02-26T10:21:02;9.20;;;5.30;;
73107;SDS011;61559;50.476;15.588;2024-02-26T10:23:34;9.00;;;4.80;;
73107;SDS011;61559;50.476;15.588;2024-02-26T10:26:05;7.50;;;4.80;;
73107;SDS011;61559;50.476;15.588;2024-02-26T10:28:36;11.50;;;5.30;;
73107;SDS011;61559;50.476;15.588;2024-02-26T10:31:08;9.30;;;5.10;;
73107;SDS011;61559;50.476;15.588;2024-02-26T10:33:39;9.30;;;4.90;;
73107;SDS011;61559;50.476;15.588;2024-02-26T10:36:12;9.80;;;5.80;;
73107;SDS011;61559;50.476;15.588;2024-02-26T10:38:43;8.70;;;5.40;;
73107;SDS011;61559;50.476;15.588;2024-02-26T10:41:14;12.60;;;5.60;;
73107;SDS011;61559;50.476;15.588;2024-02-26T10:46:16;8.40;;;4.70;;
73107;SDS011;61559;50.476;15.588;2024-02-26T10:48:50;6.80;;;4.20;;
73107;SDS011;61559;50.476;15.588;2024-02-26T10:51:25;9.30;;;4.60;;
73107;SDS011;61559;50.476;15.588;2024-02-26T10:53:58;6.60;;;3.90;;
73107;SDS011;61559;50.476;15.588;2024-02-26T10:56:30;9.60;;;4.70;;
73107;SDS011;61559;50.476;15.588;2024-02-26T10:59:06;7.30;;;4.10;;
73107;SDS011;61559;50.476;15.588;2024-02-26T11:01:39;7.30;;;4.10;;
73107;SDS011;61559;50.476;15.588;2024-02-26T11:04:15;13.00;;;5.40;;
73107;SDS011;61559;50.476;15.588;2024-02-26T11:06:47;9.50;;;4.80;;
73107;SDS011;61559;50.476;15.588;2024-02-26T11:09:21;7.20;;;3.80;;
73107;SDS011;61559;50.476;15.588;2024-02-26T11:11:54;9.40;;;4.20;;
73107;SDS011;61559;50.476;15.588;2024-02-26T11:14:26;5.30;;;4.00;;
73107;SDS011;61559;50.476;15.588;2024-02-26T11:16:59;7.00;;;3.90;;
73107;SDS011;61559;50.476;15.588;2024-02-26T11:19:31;6.40;;;4.10;;
73107;SDS011;61559;50.476;15.588;2024-02-26T11:22:05;6.60;;;4.30;;
73107;SDS011;61559;50.476;15.588;2024-02-26T11:24:48;7.40;;;4.50;;
73107;SDS011;61559;50.476;15.588;2024-02-26T11:27:19;8.00;;;4.20;;
73107;SDS011;61559;50.476;15.588;2024-02-26T11:29:58;7.30;;;3.60;;
73107;SDS011;61559;50.476;15.588;2024-02-26T11:32:33;7.30;;;3.90;;
73107;SDS011;61559;50.476;15.588;2024-02-26T11:35:06;5.20;;;3.20;;
73107;SDS011;61559;50.476;15.588;2024-02-26T11:37:38;6.30;;;4.10;;
73107;SDS011;61559;50.476;15.588;2024-02-26T11:40:13;6.80;;;3.90;;
73107;SDS011;61559;50.476;15.588;2024-02-26T11:42:44;6.30;;;4.10;;
73107;SDS011;61559;50.476;15.588;2024-02-26T11:48:28;6.80;;;3.60;;
73107;SDS011;61559;50.476;15.588;2024-02-26T11:50:59;5.90;;;3.90;;
73107;SDS011;61559;50.476;15.588;2024-02-26T11:53:31;7.40;;;4.20;;
73107;SDS011;61559;50.476;15.588;2024-02-26T11:56:21;6.70;;;4.20;;
73107;SDS011;61559;50.476;15.588;2024-02-26T12:01:45;8.60;;;4.40;;
73107;SDS011;61559;50.476;15.588;2024-02-26T12:04:19;8.30;;;4.40;;
73107;SDS011;61559;50.476;15.588;2024-02-26T12:06:54;7.80;;;4.20;;
73107;SDS011;61559;50.476;15.588;2024-02-26T12:09:33;6.60;;;4.00;;
73107;SDS011;61559;50.476;15.588;2024-02-26T12:12:06;8.90;;;4.30;;
73107;SDS011;61559;50.476;15.588;2024-02-26T12:14:39;6.80;;;4.40;;
73107;SDS011;61559;50.476;15.588;2024-02-26T12:17:21;8.50;;;4.30;;
73107;SDS011;61559;50.476;15.588;2024-02-26T12:19:53;10.70;;;4.90;;
73107;SDS011;61559;50.476;15.588;2024-02-26T12:22:38;8.10;;;4.70;;
73107;SDS011;61559;50.476;15.588;2024-02-26T12:25:14;10.70;;;6.10;;
73107;SDS011;61559;50.476;15.588;2024-02-26T12:27:45;18.70;;;8.70;;
73107;SDS011;61559;50.476;15.588;2024-02-26T12:30:16;7.30;;;4.50;;
73107;SDS011;61559;50.476;15.588;2024-02-26T12:32:48;9.00;;;5.00;;
73107;SDS011;61559;50.476;15.588;2024-02-26T12:35:20;7.20;;;4.70;;
73107;SDS011;61559;50.476;15.588;2024-02-26T12:37:51;5.90;;;4.20;;
73107;SDS011;61559;50.476;15.588;2024-02-26T12:40:23;8.10;;;4.30;;
73107;SDS011;61559;50.476;15.588;2024-02-26T12:42:56;5.70;;;3.80;;
73107;SDS011;61559;50.476;15.588;2024-02-26T12:45:27;4.90;;;3.60;;
73107;SDS011;61559;50.476;15.588;2024-02-26T12:48:00;6.30;;;4.00;;
73107;SDS011;61559;50.476;15.588;2024-02-26T12:50:31;6.50;;;4.00;;
73107;SDS011;61559;50.476;15.588;2024-02-26T12:53:02;6.00;;;4.10;;
73107;SDS011;61559;50.476;15.588;2024-02-26T12:55:34;5.50;;;3.90;;
73107;SDS011;61559;50.476;15.588;2024-02-26T12:58:08;5.80;;;4.00;;
73107;SDS011;61559;50.476;15.588;2024-02-26T13:00:39;6.90;;;3.90;;
73107;SDS011;61559;50.476;15.588;2024-02-26T13:03:11;6.70;;;4.00;;
73107;SDS011;61559;50.476;15.588;2024-02-26T13:05:42;6.10;;;4.30;;
73107;SDS011;61559;50.476;15.588;2024-02-26T13:08:18;6.50;;;3.80;;
73107;SDS011;61559;50.476;15.588;2024-02-26T13:10:49;6.00;;;3.60;;
73107;SDS011;61559;50.476;15.588;2024-02-26T13:13:22;7.40;;;3.50;;
73107;SDS011;61559;50.476;15.588;2024-02-26T13:16:02;8.50;;;4.30;;
73107;SDS011;61559;50.476;15.588;2024-02-26T13:18:36;10.90;;;5.90;;
73107;SDS011;61559;50.476;15.588;2024-02-26T13:21:08;8.40;;;4.50;;
73107;SDS011;61559;50.476;15.588;2024-02-26T13:23:41;6.20;;;3.40;;
73107;SDS011;61559;50.476;15.588;2024-02-26T13:26:14;6.00;;;3.60;;
73107;SDS011;61559;50.476;15.588;2024-02-26T13:28:45;7.10;;;4.70;;
73107;SDS011;61559;50.476;15.588;2024-02-26T13:31:17;6.90;;;4.00;;
73107;SDS011;61559;50.476;15.588;2024-02-26T13:33:48;5.10;;;3.50;;
73107;SDS011;61559;50.476;15.588;2024-02-26T13:36:21;7.90;;;3.90;;
73107;SDS011;61559;50.476;15.588;2024-02-26T13:38:53;6.40;;;3.80;;
73107;SDS011;61559;50.476;15.588;2024-02-26T13:41:25;7.40;;;3.70;;
73107;SDS011;61559;50.476;15.588;2024-02-26T13:43:56;10.20;;;4.30;;
73107;SDS011;61559;50.476;15.588;2024-02-26T13:46:27;5.20;;;3.60;;
73107;SDS011;61559;50.476;15.588;2024-02-26T13:51:28;7.30;;;3.30;;
73107;SDS011;61559;50.476;15.588;2024-02-26T13:54:03;7.20;;;3.50;;
73107;SDS011;61559;50.476;15.588;2024-02-26T13:56:35;5.20;;;3.40;;
73107;SDS011;61559;50.476;15.588;2024-02-26T13:59:06;7.20;;;3.90;;
73107;SDS011;61559;50.476;15.588;2024-02-26T14:01:37;4.90;;;3.10;;
73107;SDS011;61559;50.476;15.588;2024-02-26T14:06:38;11.70;;;6.70;;
73107;SDS011;61559;50.476;15.588;2024-02-26T14:09:10;150.00;;;67.10;;
73107;SDS011;61559;50.476;15.588;2024-02-26T14:11:46;88.70;;;41.70;;
73107;SDS011;61559;50.476;15.588;2024-02-26T14:17:07;10.30;;;5.10;;
73107;SDS011;61559;50.476;15.588;2024-02-26T14:19:38;6.90;;;3.70;;
73107;SDS011;61559;50.476;15.588;2024-02-26T14:22:12;5.50;;;3.10;;
73107;SDS011;61559;50.476;15.588;2024-02-26T14:24:45;5.80;;;2.90;;
73107;SDS011;61559;50.476;15.588;2024-02-26T14:27:16;5.00;;;3.00;;
73107;SDS011;61559;50.476;15.588;2024-02-26T14:29:50;4.60;;;3.10;;
73107;SDS011;61559;50.476;15.588;2024-02-26T14:32:21;5.80;;;3.20;;
73107;SDS011;61559;50.476;15.588;2024-02-26T14:34:55;7.60;;;3.00;;
73107;SDS011;61559;50.476;15.588;2024-02-26T14:37:28;5.90;;;2.70;;
73107;SDS011;61559;50.476;15.588;2024-02-26T14:40:17;4.30;;;2.80;;
73107;SDS011;61559;50.476;15.588;2024-02-26T14:42:48;4.50;;;2.80;;
73107;SDS011;61559;50.476;15.588;2024-02-26T14:45:19;5.20;;;3.00;;
73107;SDS011;61559;50.476;15.588;2024-02-26T14:47:51;3.40;;;2.40;;
73107;SDS011;61559;50.476;15.588;2024-02-26T14:50:23;5.70;;;2.80;;
73107;SDS011;61559;50.476;15.588;2024-02-26T14:52:54;3.90;;;2.60;;
73107;SDS011;61559;50.476;15.588;2024-02-26T14:55:26;4.80;;;2.90;;
73107;SDS011;61559;50.476;15.588;2024-02-26T14:57:58;4.30;;;2.40;;
73107;SDS011;61559;50.476;15.588;2024-02-26T15:00:29;6.80;;;4.10;;
73107;SDS011;61559;50.476;15.588;2024-02-26T15:03:02;9.70;;;5.80;;
73107;SDS011;61559;50.476;15.588;2024-02-26T15:05:35;9.90;;;5.90;;
73107;SDS011;61559;50.476;15.588;2024-02-26T15:08:06;7.30;;;3.70;;
73107;SDS011;61559;50.476;15.588;2024-02-26T15:10:38;5.40;;;3.00;;
73107;SDS011;61559;50.476;15.588;2024-02-26T15:13:11;4.60;;;2.60;;
73107;SDS011;61559;50.476;15.588;2024-02-26T15:15:43;4.90;;;2.90;;
73107;SDS011;61559;50.476;15.588;2024-02-26T15:18:15;5.80;;;3.10;;
73107;SDS011;61559;50.476;15.588;2024-02-26T15:20:47;5.40;;;3.00;;
73107;SDS011;61559;50.476;15.588;2024-02-26T15:23:20;5.30;;;2.70;;
73107;SDS011;61559;50.476;15.588;2024-02-26T15:28:21;4.80;;;2.30;;
73107;SDS011;61559;50.476;15.588;2024-02-26T15:30:55;6.00;;;2.90;;
73107;SDS011;61559;50.476;15.588;2024-02-26T15:33:26;5.00;;;3.00;;
73107;SDS011;61559;50.476;15.588;2024-02-26T15:35:58;4.10;;;2.40;;
73107;SDS011;61559;50.476;15.588;2024-02-26T15:38:29;6.20;;;2.80;;
73107;SDS011;61559;50.476;15.588;2024-02-26T15:43:30;4.40;;;2.60;;
73107;SDS011;61559;50.476;15.588;2024-02-26T15:46:01;4.30;;;2.70;;
73107;SDS011;61559;50.476;15.588;2024-02-26T15:48:33;3.90;;;2.40;;
73107;SDS011;61559;50.476;15.588;2024-02-26T15:51:06;4.70;;;2.70;;
73107;SDS011;61559;50.476;15.588;2024-02-26T15:53:37;5.90;;;3.40;;
73107;SDS011;61559;50.476;15.588;2024-02-26T15:56:08;4.60;;;2.70;;
73107;SDS011;61559;50.476;15.588;2024-02-26T15:58:39;6.70;;;3.00;;
73107;SDS011;61559;50.476;15.588;2024-02-26T16:01:10;4.00;;;2.90;;
73107;SDS011;61559;50.476;15.588;2024-02-26T16:03:51;7.60;;;3.50;;
73107;SDS011;61559;50.476;15.588;2024-02-26T16:09:14;5.00;;;2.90;;
73107;SDS011;61559;50.476;15.588;2024-02-26T16:11:45;10.30;;;6.00;;
73107;SDS011;61559;50.476;15.588;2024-02-26T16:16:55;7.00;;;3.80;;
73107;SDS011;61559;50.476;15.588;2024-02-26T16:19:31;8.30;;;5.00;;
73107;SDS011;61559;50.476;15.588;2024-02-26T16:22:04;13.30;;;8.10;;
73107;SDS011;61559;50.476;15.588;2024-02-26T16:24:35;11.80;;;6.40;;
73107;SDS011;61559;50.476;15.588;2024-02-26T16:27:07;7.20;;;3.80;;
73107;SDS011;61559;50.476;15.588;2024-02-26T16:29:39;4.40;;;3.00;;
73107;SDS011;61559;50.476;15.588;2024-02-26T16:32:10;6.20;;;2.90;;